sensor_id;sensor_type;location;lat;lon;timestamp;temperature;humidity
19999;DHT22;10160;50.926;4.374;2022-10-22T00:00:08;16.80;99.90
19999;DHT22;10160;50.926;4.374;2022-10-22T00:02:34;16.80;99.90
19999;DHT22;10160;50.926;4.374;2022-10-22T00:05:00;16.80;99.90
19999;DHT22;10160;50.926;4.374;2022-10-22T00:07:26;16.80;99.90
19999;DHT22;10160;50.926;4.374;2022-10-22T00:09:51;16.80;99.90
19999;DHT22;10160;50.926;4.374;2022-10-22T00:12:18;16.80;99.90
19999;DHT22;10160;50.926;4.374;2022-10-22T00:14:46;16.80;99.90
19999;DHT22;10160;50.926;4.374;2022-10-22T00:17:12;16.90;99.90
19999;DHT22;10160;50.926;4.374;2022-10-22T00:19:38;16.90;99.90
19999;DHT22;10160;50.926;4.374;2022-10-22T00:22:04;16.80;99.90
19999;DHT22;10160;50.926;4.374;2022-10-22T00:24:31;16.80;99.90
19999;DHT22;10160;50.926;4.374;2022-10-22T00:26:57;16.90;99.90
19999;DHT22;10160;50.926;4.374;2022-10-22T00:29:23;16.90;99.90
19999;DHT22;10160;50.926;4.374;2022-10-22T00:31:48;16.90;99.90
19999;DHT22;10160;50.926;4.374;2022-10-22T00:34:19;17.00;99.90
19999;DHT22;10160;50.926;4.374;2022-10-22T00:36:49;17.00;99.90
19999;DHT22;10160;50.926;4.374;2022-10-22T00:39:16;16.90;99.90
19999;DHT22;10160;50.926;4.374;2022-10-22T00:41:43;16.80;99.90
19999;DHT22;10160;50.926;4.374;2022-10-22T00:47:14;16.80;99.90
19999;DHT22;10160;50.926;4.374;2022-10-22T00:49:40;16.90;99.90
19999;DHT22;10160;50.926;4.374;2022-10-22T00:52:06;16.70;99.90
19999;DHT22;10160;50.926;4.374;2022-10-22T00:54:33;16.60;99.90
19999;DHT22;10160;50.926;4.374;2022-10-22T00:56:59;16.60;99.90
19999;DHT22;10160;50.926;4.374;2022-10-22T00:59:26;16.50;99.90
19999;DHT22;10160;50.926;4.374;2022-10-22T01:01:52;16.50;99.90
19999;DHT22;10160;50.926;4.374;2022-10-22T01:04:19;16.50;99.90
19999;DHT22;10160;50.926;4.374;2022-10-22T01:06:45;16.50;99.90
19999;DHT22;10160;50.926;4.374;2022-10-22T01:09:23;16.50;99.90
19999;DHT22;10160;50.926;4.374;2022-10-22T01:17:23;16.40;99.90
19999;DHT22;10160;50.926;4.374;2022-10-22T01:25:36;16.30;99.90
19999;DHT22;10160;50.926;4.374;2022-10-22T01:30:31;16.30;99.90
19999;DHT22;10160;50.926;4.374;2022-10-22T01:33:01;16.40;99.90
19999;DHT22;10160;50.926;4.374;2022-10-22T01:35:33;16.50;99.90
19999;DHT22;10160;50.926;4.374;2022-10-22T01:38:03;16.40;99.90
19999;DHT22;10160;50.926;4.374;2022-10-22T01:40:31;16.30;99.90
19999;DHT22;10160;50.926;4.374;2022-10-22T01:43:03;16.30;99.90
19999;DHT22;10160;50.926;4.374;2022-10-22T01:45:33;16.40;99.90
19999;DHT22;10160;50.926;4.374;2022-10-22T01:48:27;16.30;99.90
19999;DHT22;10160;50.926;4.374;2022-10-22T02:02:05;16.30;99.90
19999;DHT22;10160;50.926;4.374;2022-10-22T02:07:11;16.20;99.90
19999;DHT22;10160;50.926;4.374;2022-10-22T02:09:38;16.30;99.90
19999;DHT22;10160;50.926;4.374;2022-10-22T02:12:06;16.10;99.90
19999;DHT22;10160;50.926;4.374;2022-10-22T02:14:34;16.20;99.90
19999;DHT22;10160;50.926;4.374;2022-10-22T02:17:03;16.30;99.90
19999;DHT22;10160;50.926;4.374;2022-10-22T02:19:55;16.20;99.90
19999;DHT22;10160;50.926;4.374;2022-10-22T02:22:22;16.20;99.90
19999;DHT22;10160;50.926;4.374;2022-10-22T02:24:49;16.20;99.90
19999;DHT22;10160;50.926;4.374;2022-10-22T02:27:31;16.20;99.90
19999;DHT22;10160;50.926;4.374;2022-10-22T02:30:05;16.00;99.90
19999;DHT22;10160;50.926;4.374;2022-10-22T02:33:01;15.90;99.90
19999;DHT22;10160;50.926;4.374;2022-10-22T02:35:29;15.90;99.90
19999;DHT22;10160;50.926;4.374;2022-10-22T02:37:56;15.80;99.90
19999;DHT22;10160;50.926;4.374;2022-10-22T02:40:23;15.80;99.90
19999;DHT22;10160;50.926;4.374;2022-10-22T02:42:50;15.70;99.90
19999;DHT22;10160;50.926;4.374;2022-10-22T02:45:17;15.80;99.90
19999;DHT22;10160;50.926;4.374;2022-10-22T02:47:43;15.80;99.90
19999;DHT22;10160;50.926;4.374;2022-10-22T02:50:09;15.70;99.90
19999;DHT22;10160;50.926;4.374;2022-10-22T02:52:35;15.70;99.90
19999;DHT22;10160;50.926;4.374;2022-10-22T02:55:00;15.80;99.90
19999;DHT22;10160;50.926;4.374;2022-10-22T02:57:26;15.90;99.90
19999;DHT22;10160;50.926;4.374;2022-10-22T02:59:52;15.80;99.90
19999;DHT22;10160;50.926;4.374;2022-10-22T03:02:17;15.80;99.90
19999;DHT22;10160;50.926;4.374;2022-10-22T03:04:43;15.80;99.90
19999;DHT22;10160;50.926;4.374;2022-10-22T03:07:09;15.80;99.90
19999;DHT22;10160;50.926;4.374;2022-10-22T03:09:34;15.90;99.90
19999;DHT22;10160;50.926;4.374;2022-10-22T03:12:00;15.80;99.90
19999;DHT22;10160;50.926;4.374;2022-10-22T03:14:25;15.90;99.90
19999;DHT22;10160;50.926;4.374;2022-10-22T03:16:51;15.70;99.90
19999;DHT22;10160;50.926;4.374;2022-10-22T03:19:17;15.80;99.90
19999;DHT22;10160;50.926;4.374;2022-10-22T03:21:52;15.80;99.90
19999;DHT22;10160;50.926;4.374;2022-10-22T03:24:33;15.80;99.90
19999;DHT22;10160;50.926;4.374;2022-10-22T03:26:59;15.60;99.90
19999;DHT22;10160;50.926;4.374;2022-10-22T03:29:25;15.60;99.90
19999;DHT22;10160;50.926;4.374;2022-10-22T03:31:52;15.70;99.90
19999;DHT22;10160;50.926;4.374;2022-10-22T03:34:18;15.60;99.90
19999;DHT22;10160;50.926;4.374;2022-10-22T03:36:44;15.60;99.90
19999;DHT22;10160;50.926;4.374;2022-10-22T03:39:12;15.60;99.90
19999;DHT22;10160;50.926;4.374;2022-10-22T03:41:39;15.60;99.90
19999;DHT22;10160;50.926;4.374;2022-10-22T03:44:05;15.60;99.90
19999;DHT22;10160;50.926;4.374;2022-10-22T03:46:31;15.70;99.90
19999;DHT22;10160;50.926;4.374;2022-10-22T03:48:57;15.70;99.90
19999;DHT22;10160;50.926;4.374;2022-10-22T03:51:25;15.70;99.90
19999;DHT22;10160;50.926;4.374;2022-10-22T03:53:52;15.80;99.90
19999;DHT22;10160;50.926;4.374;2022-10-22T03:56:17;15.80;99.90
19999;DHT22;10160;50.926;4.374;2022-10-22T03:58:43;15.80;99.90
19999;DHT22;10160;50.926;4.374;2022-10-22T04:01:12;15.80;99.90
19999;DHT22;10160;50.926;4.374;2022-10-22T04:03:38;15.90;99.90
19999;DHT22;10160;50.926;4.374;2022-10-22T04:06:06;15.90;99.90
19999;DHT22;10160;50.926;4.374;2022-10-22T04:08:32;15.80;99.90
19999;DHT22;10160;50.926;4.374;2022-10-22T04:10:58;15.90;99.90
19999;DHT22;10160;50.926;4.374;2022-10-22T04:13:24;15.90;99.90
19999;DHT22;10160;50.926;4.374;2022-10-22T04:15:49;15.90;99.90
19999;DHT22;10160;50.926;4.374;2022-10-22T04:18:17;15.80;99.90
19999;DHT22;10160;50.926;4.374;2022-10-22T04:20:43;15.80;99.90
19999;DHT22;10160;50.926;4.374;2022-10-22T04:23:09;15.90;99.90
19999;DHT22;10160;50.926;4.374;2022-10-22T04:25:34;15.90;99.90
19999;DHT22;10160;50.926;4.374;2022-10-22T04:28:00;15.90;99.90
19999;DHT22;10160;50.926;4.374;2022-10-22T04:30:26;15.80;99.90
19999;DHT22;10160;50.926;4.374;2022-10-22T04:32:52;15.80;99.90
19999;DHT22;10160;50.926;4.374;2022-10-22T04:35:17;15.70;99.90
19999;DHT22;10160;50.926;4.374;2022-10-22T04:37:43;15.80;99.90
19999;DHT22;10160;50.926;4.374;2022-10-22T04:40:09;15.70;99.90
19999;DHT22;10160;50.926;4.374;2022-10-22T04:42:35;15.80;99.90
19999;DHT22;10160;50.926;4.374;2022-10-22T04:45:00;15.80;99.90
19999;DHT22;10160;50.926;4.374;2022-10-22T04:47:26;15.60;99.90
19999;DHT22;10160;50.926;4.374;2022-10-22T04:49:52;15.70;99.90
19999;DHT22;10160;50.926;4.374;2022-10-22T04:52:17;15.70;99.90
19999;DHT22;10160;50.926;4.374;2022-10-22T04:54:43;15.70;99.90
19999;DHT22;10160;50.926;4.374;2022-10-22T04:57:08;15.70;99.90
19999;DHT22;10160;50.926;4.374;2022-10-22T04:59:34;15.70;99.90
19999;DHT22;10160;50.926;4.374;2022-10-22T05:02:00;15.60;99.90
19999;DHT22;10160;50.926;4.374;2022-10-22T05:04:25;15.70;99.90
19999;DHT22;10160;50.926;4.374;2022-10-22T05:06:51;15.60;99.90
19999;DHT22;10160;50.926;4.374;2022-10-22T05:09:18;15.70;99.90
19999;DHT22;10160;50.926;4.374;2022-10-22T05:11:46;15.70;99.90
19999;DHT22;10160;50.926;4.374;2022-10-22T05:14:15;15.70;99.90
19999;DHT22;10160;50.926;4.374;2022-10-22T05:16:41;15.80;99.90
19999;DHT22;10160;50.926;4.374;2022-10-22T05:19:07;15.80;99.90
19999;DHT22;10160;50.926;4.374;2022-10-22T05:21:33;15.90;99.90
19999;DHT22;10160;50.926;4.374;2022-10-22T05:23:59;15.90;99.90
19999;DHT22;10160;50.926;4.374;2022-10-22T05:26:25;16.00;99.90
19999;DHT22;10160;50.926;4.374;2022-10-22T05:28:52;16.00;99.90
19999;DHT22;10160;50.926;4.374;2022-10-22T05:31:18;16.10;99.90
19999;DHT22;10160;50.926;4.374;2022-10-22T05:33:44;16.10;99.90
19999;DHT22;10160;50.926;4.374;2022-10-22T05:36:16;16.10;99.90
19999;DHT22;10160;50.926;4.374;2022-10-22T05:38:42;16.10;99.90
19999;DHT22;10160;50.926;4.374;2022-10-22T05:41:22;16.10;99.90
19999;DHT22;10160;50.926;4.374;2022-10-22T05:43:48;16.10;99.90
19999;DHT22;10160;50.926;4.374;2022-10-22T05:46:18;16.00;99.90
19999;DHT22;10160;50.926;4.374;2022-10-22T05:48:51;16.10;99.90
19999;DHT22;10160;50.926;4.374;2022-10-22T05:51:18;16.20;99.90
19999;DHT22;10160;50.926;4.374;2022-10-22T05:53:44;16.10;99.90
19999;DHT22;10160;50.926;4.374;2022-10-22T05:56:14;16.10;99.90
19999;DHT22;10160;50.926;4.374;2022-10-22T05:58:40;16.10;99.90
19999;DHT22;10160;50.926;4.374;2022-10-22T06:01:11;16.20;99.90
19999;DHT22;10160;50.926;4.374;2022-10-22T06:03:36;16.20;99.90
19999;DHT22;10160;50.926;4.374;2022-10-22T06:06:19;16.10;99.90
19999;DHT22;10160;50.926;4.374;2022-10-22T06:08:46;16.00;99.90
19999;DHT22;10160;50.926;4.374;2022-10-22T06:11:13;16.00;99.90
19999;DHT22;10160;50.926;4.374;2022-10-22T06:13:39;16.00;99.90
19999;DHT22;10160;50.926;4.374;2022-10-22T06:16:05;16.00;99.90
19999;DHT22;10160;50.926;4.374;2022-10-22T06:18:31;16.00;99.90
19999;DHT22;10160;50.926;4.374;2022-10-22T06:21:06;16.00;99.90
19999;DHT22;10160;50.926;4.374;2022-10-22T06:23:32;16.00;99.90
19999;DHT22;10160;50.926;4.374;2022-10-22T06:25:58;16.00;99.90
19999;DHT22;10160;50.926;4.374;2022-10-22T06:28:24;16.10;99.90
19999;DHT22;10160;50.926;4.374;2022-10-22T06:30:50;16.10;99.90
19999;DHT22;10160;50.926;4.374;2022-10-22T06:33:16;16.20;99.90
19999;DHT22;10160;50.926;4.374;2022-10-22T06:35:41;16.00;99.90
19999;DHT22;10160;50.926;4.374;2022-10-22T06:38:07;16.00;99.90
19999;DHT22;10160;50.926;4.374;2022-10-22T06:40:32;16.10;99.90
19999;DHT22;10160;50.926;4.374;2022-10-22T06:42:59;16.10;99.90
19999;DHT22;10160;50.926;4.374;2022-10-22T06:45:25;16.10;99.90
19999;DHT22;10160;50.926;4.374;2022-10-22T06:47:50;16.10;99.90
19999;DHT22;10160;50.926;4.374;2022-10-22T06:50:16;16.20;99.90
19999;DHT22;10160;50.926;4.374;2022-10-22T06:52:42;16.20;99.90
19999;DHT22;10160;50.926;4.374;2022-10-22T06:55:08;16.30;99.90
19999;DHT22;10160;50.926;4.374;2022-10-22T06:57:34;16.20;99.90
19999;DHT22;10160;50.926;4.374;2022-10-22T06:59:59;16.20;99.90
19999;DHT22;10160;50.926;4.374;2022-10-22T07:02:25;16.20;99.90
19999;DHT22;10160;50.926;4.374;2022-10-22T07:04:50;16.20;99.90
19999;DHT22;10160;50.926;4.374;2022-10-22T07:07:16;16.20;99.90
19999;DHT22;10160;50.926;4.374;2022-10-22T07:09:42;16.20;99.90
19999;DHT22;10160;50.926;4.374;2022-10-22T07:12:10;16.20;99.90
19999;DHT22;10160;50.926;4.374;2022-10-22T07:14:37;16.10;99.90
19999;DHT22;10160;50.926;4.374;2022-10-22T07:17:02;16.10;99.90
19999;DHT22;10160;50.926;4.374;2022-10-22T07:19:28;16.20;99.90
19999;DHT22;10160;50.926;4.374;2022-10-22T07:21:53;16.20;99.90
19999;DHT22;10160;50.926;4.374;2022-10-22T07:24:19;16.20;99.90
19999;DHT22;10160;50.926;4.374;2022-10-22T07:26:45;16.20;99.90
19999;DHT22;10160;50.926;4.374;2022-10-22T07:29:10;16.30;99.90
19999;DHT22;10160;50.926;4.374;2022-10-22T07:31:36;16.40;99.90
19999;DHT22;10160;50.926;4.374;2022-10-22T07:34:02;16.40;99.90
19999;DHT22;10160;50.926;4.374;2022-10-22T07:36:27;16.40;99.90
19999;DHT22;10160;50.926;4.374;2022-10-22T07:38:55;16.30;99.90
19999;DHT22;10160;50.926;4.374;2022-10-22T07:41:21;16.40;99.90
19999;DHT22;10160;50.926;4.374;2022-10-22T07:43:48;16.40;99.90
19999;DHT22;10160;50.926;4.374;2022-10-22T07:46:13;16.40;99.90
19999;DHT22;10160;50.926;4.374;2022-10-22T07:48:39;16.40;99.90
19999;DHT22;10160;50.926;4.374;2022-10-22T07:51:05;16.40;99.90
19999;DHT22;10160;50.926;4.374;2022-10-22T07:53:31;16.40;99.90
19999;DHT22;10160;50.926;4.374;2022-10-22T07:55:57;16.40;99.90
19999;DHT22;10160;50.926;4.374;2022-10-22T07:58:23;16.40;99.90
19999;DHT22;10160;50.926;4.374;2022-10-22T08:00:50;16.60;99.90
19999;DHT22;10160;50.926;4.374;2022-10-22T08:03:16;16.60;99.90
19999;DHT22;10160;50.926;4.374;2022-10-22T08:05:42;16.60;99.90
19999;DHT22;10160;50.926;4.374;2022-10-22T08:08:09;16.60;99.90
19999;DHT22;10160;50.926;4.374;2022-10-22T08:10:35;16.70;99.90
19999;DHT22;10160;50.926;4.374;2022-10-22T08:13:01;16.70;99.90
19999;DHT22;10160;50.926;4.374;2022-10-22T08:15:27;16.80;99.90
19999;DHT22;10160;50.926;4.374;2022-10-22T08:17:53;16.80;99.90
19999;DHT22;10160;50.926;4.374;2022-10-22T08:20:19;16.90;99.90
19999;DHT22;10160;50.926;4.374;2022-10-22T08:22:45;16.90;99.90
19999;DHT22;10160;50.926;4.374;2022-10-22T08:25:11;16.80;99.90
19999;DHT22;10160;50.926;4.374;2022-10-22T08:27:37;16.80;99.90
19999;DHT22;10160;50.926;4.374;2022-10-22T08:30:04;16.70;99.90
19999;DHT22;10160;50.926;4.374;2022-10-22T08:32:30;16.60;99.90
19999;DHT22;10160;50.926;4.374;2022-10-22T08:34:56;16.60;99.90
19999;DHT22;10160;50.926;4.374;2022-10-22T08:37:22;16.60;99.90
19999;DHT22;10160;50.926;4.374;2022-10-22T08:39:48;16.60;99.90
19999;DHT22;10160;50.926;4.374;2022-10-22T08:50:55;16.80;99.90
19999;DHT22;10160;50.926;4.374;2022-10-22T08:55:56;17.10;99.90
19999;DHT22;10160;50.926;4.374;2022-10-22T08:58:36;17.30;99.90
19999;DHT22;10160;50.926;4.374;2022-10-22T09:01:28;17.30;99.90
19999;DHT22;10160;50.926;4.374;2022-10-22T09:06:31;17.30;99.90
19999;DHT22;10160;50.926;4.374;2022-10-22T09:08:59;17.60;99.90
19999;DHT22;10160;50.926;4.374;2022-10-22T09:11:37;17.60;99.90
19999;DHT22;10160;50.926;4.374;2022-10-22T09:14:04;17.60;99.90
19999;DHT22;10160;50.926;4.374;2022-10-22T09:24:39;17.50;99.90
19999;DHT22;10160;50.926;4.374;2022-10-22T09:27:15;17.70;99.90
19999;DHT22;10160;50.926;4.374;2022-10-22T09:29:42;17.70;99.90
19999;DHT22;10160;50.926;4.374;2022-10-22T09:32:07;17.70;99.90
19999;DHT22;10160;50.926;4.374;2022-10-22T09:34:33;17.70;99.90
19999;DHT22;10160;50.926;4.374;2022-10-22T09:37:07;17.90;99.90
19999;DHT22;10160;50.926;4.374;2022-10-22T09:39:36;18.00;99.90
19999;DHT22;10160;50.926;4.374;2022-10-22T09:42:02;18.10;99.90
19999;DHT22;10160;50.926;4.374;2022-10-22T09:44:28;18.10;99.90
19999;DHT22;10160;50.926;4.374;2022-10-22T09:46:53;18.10;99.90
19999;DHT22;10160;50.926;4.374;2022-10-22T09:49:21;18.10;99.90
19999;DHT22;10160;50.926;4.374;2022-10-22T09:54:24;18.20;99.90
19999;DHT22;10160;50.926;4.374;2022-10-22T09:57:20;17.90;99.90
19999;DHT22;10160;50.926;4.374;2022-10-22T09:59:50;17.70;99.90
19999;DHT22;10160;50.926;4.374;2022-10-22T10:02:27;17.60;99.90
19999;DHT22;10160;50.926;4.374;2022-10-22T10:04:55;17.50;99.90
19999;DHT22;10160;50.926;4.374;2022-10-22T10:07:28;17.70;99.90
19999;DHT22;10160;50.926;4.374;2022-10-22T10:09:55;18.30;99.90
19999;DHT22;10160;50.926;4.374;2022-10-22T10:20:28;19.50;99.90
19999;DHT22;10160;50.926;4.374;2022-10-22T10:34:42;20.70;99.90
19999;DHT22;10160;50.926;4.374;2022-10-22T10:37:58;21.50;99.90
19999;DHT22;10160;50.926;4.374;2022-10-22T10:40:37;22.70;99.90
19999;DHT22;10160;50.926;4.374;2022-10-22T10:43:09;24.00;99.90
19999;DHT22;10160;50.926;4.374;2022-10-22T10:48:25;22.50;99.90
19999;DHT22;10160;50.926;4.374;2022-10-22T10:51:11;22.00;99.90
19999;DHT22;10160;50.926;4.374;2022-10-22T10:53:50;21.70;99.90
19999;DHT22;10160;50.926;4.374;2022-10-22T10:59:16;22.10;99.90
19999;DHT22;10160;50.926;4.374;2022-10-22T11:07:40;20.60;99.90
19999;DHT22;10160;50.926;4.374;2022-10-22T11:13:28;19.90;99.90
19999;DHT22;10160;50.926;4.374;2022-10-22T11:16:08;22.00;99.90
19999;DHT22;10160;50.926;4.374;2022-10-22T11:18:56;23.10;99.90
19999;DHT22;10160;50.926;4.374;2022-10-22T11:26:52;24.00;99.90
19999;DHT22;10160;50.926;4.374;2022-10-22T11:29:39;23.90;99.90
19999;DHT22;10160;50.926;4.374;2022-10-22T11:32:20;24.50;99.90
19999;DHT22;10160;50.926;4.374;2022-10-22T11:37:12;24.90;99.90
19999;DHT22;10160;50.926;4.374;2022-10-22T11:39:49;25.60;99.90
19999;DHT22;10160;50.926;4.374;2022-10-22T11:42:21;24.00;99.90
19999;DHT22;10160;50.926;4.374;2022-10-22T11:48:04;22.40;99.90
19999;DHT22;10160;50.926;4.374;2022-10-22T11:53:30;21.20;99.90
19999;DHT22;10160;50.926;4.374;2022-10-22T11:55:57;20.50;99.90
19999;DHT22;10160;50.926;4.374;2022-10-22T12:03:39;20.90;99.90
19999;DHT22;10160;50.926;4.374;2022-10-22T12:11:35;20.40;99.90
19999;DHT22;10160;50.926;4.374;2022-10-22T12:16:56;20.30;99.90
19999;DHT22;10160;50.926;4.374;2022-10-22T12:22:01;20.70;99.90
19999;DHT22;10160;50.926;4.374;2022-10-22T12:24:45;20.40;99.90
19999;DHT22;10160;50.926;4.374;2022-10-22T12:27:25;20.40;99.90
19999;DHT22;10160;50.926;4.374;2022-10-22T12:29:56;21.00;99.90
19999;DHT22;10160;50.926;4.374;2022-10-22T12:32:22;22.00;99.90
19999;DHT22;10160;50.926;4.374;2022-10-22T12:34:51;22.20;99.90
19999;DHT22;10160;50.926;4.374;2022-10-22T12:37:18;22.20;99.90
19999;DHT22;10160;50.926;4.374;2022-10-22T12:39:45;22.40;99.90
19999;DHT22;10160;50.926;4.374;2022-10-22T12:42:15;22.40;99.90
19999;DHT22;10160;50.926;4.374;2022-10-22T12:44:44;22.40;99.90
19999;DHT22;10160;50.926;4.374;2022-10-22T12:47:15;21.90;99.90
19999;DHT22;10160;50.926;4.374;2022-10-22T12:49:45;21.30;99.90
19999;DHT22;10160;50.926;4.374;2022-10-22T12:52:17;20.90;99.90
19999;DHT22;10160;50.926;4.374;2022-10-22T12:54:45;21.70;99.90
19999;DHT22;10160;50.926;4.374;2022-10-22T12:57:14;22.50;99.90
19999;DHT22;10160;50.926;4.374;2022-10-22T12:59:44;22.80;99.90
19999;DHT22;10160;50.926;4.374;2022-10-22T13:02:20;23.50;99.90
19999;DHT22;10160;50.926;4.374;2022-10-22T13:05:23;24.40;99.90
19999;DHT22;10160;50.926;4.374;2022-10-22T13:08:01;25.60;99.90
19999;DHT22;10160;50.926;4.374;2022-10-22T13:10:38;27.10;99.90
19999;DHT22;10160;50.926;4.374;2022-10-22T13:13:03;27.80;99.90
19999;DHT22;10160;50.926;4.374;2022-10-22T13:15:36;28.60;99.90
19999;DHT22;10160;50.926;4.374;2022-10-22T13:18:20;29.50;99.90
19999;DHT22;10160;50.926;4.374;2022-10-22T13:20:51;29.60;99.90
19999;DHT22;10160;50.926;4.374;2022-10-22T13:23:22;30.00;99.90
19999;DHT22;10160;50.926;4.374;2022-10-22T13:26:13;30.80;99.90
19999;DHT22;10160;50.926;4.374;2022-10-22T13:28:39;29.50;99.90
19999;DHT22;10160;50.926;4.374;2022-10-22T13:31:14;27.60;99.90
19999;DHT22;10160;50.926;4.374;2022-10-22T13:33:43;26.60;99.90
19999;DHT22;10160;50.926;4.374;2022-10-22T13:36:14;25.90;99.90
19999;DHT22;10160;50.926;4.374;2022-10-22T13:38:41;26.00;99.90
19999;DHT22;10160;50.926;4.374;2022-10-22T13:41:25;25.50;99.90
19999;DHT22;10160;50.926;4.374;2022-10-22T13:43:52;25.70;99.90
19999;DHT22;10160;50.926;4.374;2022-10-22T13:46:19;24.90;99.90
19999;DHT22;10160;50.926;4.374;2022-10-22T13:48:46;25.20;99.90
19999;DHT22;10160;50.926;4.374;2022-10-22T13:51:14;25.60;99.90
19999;DHT22;10160;50.926;4.374;2022-10-22T13:53:41;25.80;99.90
19999;DHT22;10160;50.926;4.374;2022-10-22T13:56:12;25.60;99.90
19999;DHT22;10160;50.926;4.374;2022-10-22T13:58:40;24.80;99.90
19999;DHT22;10160;50.926;4.374;2022-10-22T14:03:42;24.90;99.90
19999;DHT22;10160;50.926;4.374;2022-10-22T14:06:12;25.70;99.90
19999;DHT22;10160;50.926;4.374;2022-10-22T14:08:40;25.40;99.90
19999;DHT22;10160;50.926;4.374;2022-10-22T14:11:07;24.30;99.90
19999;DHT22;10160;50.926;4.374;2022-10-22T14:13:33;24.00;99.90
19999;DHT22;10160;50.926;4.374;2022-10-22T14:15:58;23.10;99.90
19999;DHT22;10160;50.926;4.374;2022-10-22T14:18:25;22.70;99.90
19999;DHT22;10160;50.926;4.374;2022-10-22T14:20:55;23.20;99.90
19999;DHT22;10160;50.926;4.374;2022-10-22T14:23:24;23.80;99.90
19999;DHT22;10160;50.926;4.374;2022-10-22T14:25:51;23.80;99.90
19999;DHT22;10160;50.926;4.374;2022-10-22T14:28:17;23.30;99.90
19999;DHT22;10160;50.926;4.374;2022-10-22T14:30:43;23.40;99.90
19999;DHT22;10160;50.926;4.374;2022-10-22T14:33:16;23.30;99.90
19999;DHT22;10160;50.926;4.374;2022-10-22T14:35:42;23.10;99.90
19999;DHT22;10160;50.926;4.374;2022-10-22T14:38:08;23.30;99.90
19999;DHT22;10160;50.926;4.374;2022-10-22T14:40:34;23.60;99.90
19999;DHT22;10160;50.926;4.374;2022-10-22T14:43:03;24.10;99.90
19999;DHT22;10160;50.926;4.374;2022-10-22T14:45:28;23.70;99.90
19999;DHT22;10160;50.926;4.374;2022-10-22T14:47:54;23.80;99.90
19999;DHT22;10160;50.926;4.374;2022-10-22T14:50:20;23.80;99.90
19999;DHT22;10160;50.926;4.374;2022-10-22T14:52:46;24.00;99.90
19999;DHT22;10160;50.926;4.374;2022-10-22T14:55:14;24.20;99.90
19999;DHT22;10160;50.926;4.374;2022-10-22T14:57:41;24.10;99.90
19999;DHT22;10160;50.926;4.374;2022-10-22T15:00:10;23.90;99.90
19999;DHT22;10160;50.926;4.374;2022-10-22T15:02:36;23.70;99.90
19999;DHT22;10160;50.926;4.374;2022-10-22T15:05:02;23.40;99.90
19999;DHT22;10160;50.926;4.374;2022-10-22T15:07:27;23.20;99.90
19999;DHT22;10160;50.926;4.374;2022-10-22T15:09:53;22.80;99.90
19999;DHT22;10160;50.926;4.374;2022-10-22T15:12:19;22.30;99.90
19999;DHT22;10160;50.926;4.374;2022-10-22T15:14:48;21.90;99.90
19999;DHT22;10160;50.926;4.374;2022-10-22T15:17:15;21.70;99.90
19999;DHT22;10160;50.926;4.374;2022-10-22T15:19:41;21.70;99.90
19999;DHT22;10160;50.926;4.374;2022-10-22T15:22:11;21.50;99.90
19999;DHT22;10160;50.926;4.374;2022-10-22T15:24:36;21.60;99.90
19999;DHT22;10160;50.926;4.374;2022-10-22T15:27:03;21.20;99.90
19999;DHT22;10160;50.926;4.374;2022-10-22T15:29:29;21.00;99.90
19999;DHT22;10160;50.926;4.374;2022-10-22T15:31:57;20.80;99.90
19999;DHT22;10160;50.926;4.374;2022-10-22T15:34:29;20.90;99.90
19999;DHT22;10160;50.926;4.374;2022-10-22T15:36:57;21.00;99.90
19999;DHT22;10160;50.926;4.374;2022-10-22T15:39:23;20.60;99.90
19999;DHT22;10160;50.926;4.374;2022-10-22T15:41:49;20.50;99.90
19999;DHT22;10160;50.926;4.374;2022-10-22T15:44:23;20.40;99.90
19999;DHT22;10160;50.926;4.374;2022-10-22T15:46:50;20.60;99.90
19999;DHT22;10160;50.926;4.374;2022-10-22T15:49:16;20.60;99.90
19999;DHT22;10160;50.926;4.374;2022-10-22T15:51:42;20.40;99.90
19999;DHT22;10160;50.926;4.374;2022-10-22T15:54:15;20.40;99.90
19999;DHT22;10160;50.926;4.374;2022-10-22T15:56:42;20.40;99.90
19999;DHT22;10160;50.926;4.374;2022-10-22T15:59:10;20.40;99.90
19999;DHT22;10160;50.926;4.374;2022-10-22T16:01:36;20.40;99.90
19999;DHT22;10160;50.926;4.374;2022-10-22T16:04:03;20.20;99.90
19999;DHT22;10160;50.926;4.374;2022-10-22T16:06:42;20.30;99.90
19999;DHT22;10160;50.926;4.374;2022-10-22T16:09:16;20.40;99.90
19999;DHT22;10160;50.926;4.374;2022-10-22T16:11:42;20.30;99.90
19999;DHT22;10160;50.926;4.374;2022-10-22T16:14:10;20.10;99.90
19999;DHT22;10160;50.926;4.374;2022-10-22T16:16:36;20.00;99.90
19999;DHT22;10160;50.926;4.374;2022-10-22T16:19:04;20.00;99.90
19999;DHT22;10160;50.926;4.374;2022-10-22T16:21:30;19.80;99.90
19999;DHT22;10160;50.926;4.374;2022-10-22T16:23:56;19.70;99.90
19999;DHT22;10160;50.926;4.374;2022-10-22T16:26:21;19.50;99.90
19999;DHT22;10160;50.926;4.374;2022-10-22T16:28:47;19.30;99.90
19999;DHT22;10160;50.926;4.374;2022-10-22T16:31:16;19.30;99.90
19999;DHT22;10160;50.926;4.374;2022-10-22T16:33:41;19.50;99.90
19999;DHT22;10160;50.926;4.374;2022-10-22T16:36:12;19.50;99.90
19999;DHT22;10160;50.926;4.374;2022-10-22T16:38:38;19.50;99.90
19999;DHT22;10160;50.926;4.374;2022-10-22T16:41:11;19.50;99.90
19999;DHT22;10160;50.926;4.374;2022-10-22T16:43:39;19.40;99.90
19999;DHT22;10160;50.926;4.374;2022-10-22T16:46:05;19.50;99.90
19999;DHT22;10160;50.926;4.374;2022-10-22T16:48:31;19.50;99.90
19999;DHT22;10160;50.926;4.374;2022-10-22T16:50:58;19.50;99.90
19999;DHT22;10160;50.926;4.374;2022-10-22T16:53:24;19.50;99.90
19999;DHT22;10160;50.926;4.374;2022-10-22T16:55:49;19.60;99.90
19999;DHT22;10160;50.926;4.374;2022-10-22T16:58:15;19.50;99.90
19999;DHT22;10160;50.926;4.374;2022-10-22T17:00:40;19.40;99.90
19999;DHT22;10160;50.926;4.374;2022-10-22T17:03:07;19.50;99.90
19999;DHT22;10160;50.926;4.374;2022-10-22T17:05:36;19.30;99.90
19999;DHT22;10160;50.926;4.374;2022-10-22T17:08:02;19.20;99.90
19999;DHT22;10160;50.926;4.374;2022-10-22T17:10:28;18.90;99.90
19999;DHT22;10160;50.926;4.374;2022-10-22T17:12:53;18.60;99.90
19999;DHT22;10160;50.926;4.374;2022-10-22T17:15:19;18.70;99.90
19999;DHT22;10160;50.926;4.374;2022-10-22T17:17:44;18.70;99.90
19999;DHT22;10160;50.926;4.374;2022-10-22T17:20:13;18.80;99.90
19999;DHT22;10160;50.926;4.374;2022-10-22T17:22:39;18.70;99.90
19999;DHT22;10160;50.926;4.374;2022-10-22T17:27:36;18.70;99.90
19999;DHT22;10160;50.926;4.374;2022-10-22T17:30:03;18.60;99.90
19999;DHT22;10160;50.926;4.374;2022-10-22T17:32:29;18.70;99.90
19999;DHT22;10160;50.926;4.374;2022-10-22T17:34:55;18.60;99.90
19999;DHT22;10160;50.926;4.374;2022-10-22T17:37:20;18.50;99.90
19999;DHT22;10160;50.926;4.374;2022-10-22T17:39:46;18.50;99.90
19999;DHT22;10160;50.926;4.374;2022-10-22T17:42:12;18.40;99.90